createdAt,value
2018-12-04T00:00:06.421Z,11.40
2018-12-04T00:03:04.461Z,11.50
2018-12-04T00:06:02.626Z,11.50
2018-12-04T00:09:00.381Z,11.50
2018-12-04T00:11:58.273Z,11.50
2018-12-04T00:14:56.076Z,11.50
2018-12-04T00:17:53.931Z,11.50
2018-12-04T00:20:53.076Z,11.60
2018-12-04T00:23:51.026Z,11.50
2018-12-04T00:26:48.676Z,11.50
2018-12-04T00:29:46.682Z,11.50
2018-12-04T00:32:44.557Z,11.50
2018-12-04T00:35:42.250Z,11.50
2018-12-04T00:38:40.099Z,11.50
2018-12-04T00:41:37.847Z,11.50
2018-12-04T00:44:35.963Z,11.50
2018-12-04T00:47:33.803Z,11.50
2018-12-04T00:50:32.570Z,11.50
2018-12-04T00:53:31.328Z,11.50
2018-12-04T00:56:30.098Z,11.50
2018-12-04T00:59:27.959Z,11.50
2018-12-04T01:02:26.519Z,11.60
2018-12-04T01:05:24.494Z,11.70
2018-12-04T01:08:22.293Z,11.70
2018-12-04T01:11:20.096Z,11.80
2018-12-04T01:14:17.873Z,11.80
2018-12-04T01:17:15.692Z,11.90
2018-12-04T01:20:13.452Z,11.90
2018-12-04T01:23:11.291Z,12.00
2018-12-04T01:26:10.065Z,12.10
2018-12-04T01:29:07.843Z,12.10
2018-12-04T01:32:05.652Z,12.10
2018-12-04T01:35:03.555Z,12.10
2018-12-04T01:38:01.443Z,12.10
2018-12-04T01:41:00.293Z,12.10
2018-12-04T01:43:58.884Z,12.00
2018-12-04T01:46:56.822Z,12.10
2018-12-04T01:49:54.452Z,12.00
2018-12-04T01:52:52.317Z,12.00
2018-12-04T01:55:51.069Z,12.00
2018-12-04T01:58:48.956Z,12.00
2018-12-04T02:01:46.710Z,12.00
2018-12-04T02:04:45.449Z,12.10
2018-12-04T02:07:43.206Z,12.20
2018-12-04T02:10:41.098Z,12.20
2018-12-04T02:13:39.017Z,12.30
2018-12-04T02:16:36.803Z,12.30
2018-12-04T02:19:34.670Z,12.20
2018-12-04T02:22:32.727Z,12.10
2018-12-04T02:25:30.488Z,12.10
2018-12-04T02:28:31.200Z,12.00
2018-12-04T02:31:29.461Z,12.00
2018-12-04T02:34:28.330Z,11.80
2018-12-04T02:37:26.275Z,11.80
2018-12-04T02:40:24.220Z,11.70
2018-12-04T02:43:22.111Z,11.60
2018-12-04T02:46:19.913Z,11.60
2018-12-04T02:49:18.840Z,11.60
2018-12-04T02:52:16.502Z,11.60
2018-12-04T02:55:15.273Z,11.60
2018-12-04T02:58:13.829Z,11.60
2018-12-04T03:01:11.614Z,11.60
2018-12-04T03:04:09.455Z,11.70
2018-12-04T03:07:07.048Z,11.70
2018-12-04T03:10:05.766Z,11.70
2018-12-04T03:13:03.598Z,11.80
2018-12-04T03:16:02.287Z,11.80
2018-12-04T03:19:00.176Z,11.80
2018-12-04T03:21:58.008Z,11.90
2018-12-04T03:24:56.085Z,11.90
2018-12-04T03:27:53.921Z,12.00
2018-12-04T03:30:51.716Z,11.90
2018-12-04T03:33:57.413Z,11.90
2018-12-04T03:36:55.273Z,12.00
2018-12-04T03:39:53.116Z,12.00
2018-12-04T03:42:51.698Z,12.10
2018-12-04T03:45:49.470Z,12.10
2018-12-04T03:48:47.215Z,12.10
2018-12-04T03:51:44.960Z,12.20
2018-12-04T03:54:42.903Z,12.10
2018-12-04T03:57:40.769Z,12.20
2018-12-04T04:00:39.432Z,12.20
2018-12-04T04:03:37.197Z,12.20
2018-12-04T04:06:34.864Z,12.20
2018-12-04T04:09:32.621Z,12.20
2018-12-04T04:12:31.496Z,12.20
2018-12-04T04:15:29.379Z,12.20
2018-12-04T04:18:27.388Z,12.20
2018-12-04T04:24:31.199Z,12.20
2018-12-04T04:27:29.181Z,12.20
2018-12-04T04:30:28.038Z,12.20
2018-12-04T04:33:25.958Z,12.20
2018-12-04T04:36:24.796Z,12.20
2018-12-04T04:39:22.711Z,12.20
2018-12-04T04:42:20.600Z,12.20
2018-12-04T04:45:18.468Z,12.30
2018-12-04T04:48:16.363Z,12.30
2018-12-04T04:51:14.376Z,12.30
2018-12-04T04:54:12.427Z,12.30
2018-12-04T04:57:10.280Z,12.30
2018-12-04T05:00:08.333Z,12.20
2018-12-04T05:03:06.186Z,12.20
2018-12-04T05:06:04.200Z,12.20
2018-12-04T05:09:03.083Z,12.20
2018-12-04T05:12:01.736Z,12.20
2018-12-04T05:14:59.719Z,12.20
2018-12-04T05:17:58.567Z,12.20
2018-12-04T05:20:57.521Z,12.20
2018-12-04T05:23:55.491Z,12.20
2018-12-04T05:26:53.467Z,12.20
2018-12-04T05:29:51.273Z,12.20
2018-12-04T05:32:49.143Z,12.20
2018-12-04T05:35:47.305Z,12.20
2018-12-04T05:38:45.173Z,12.20
2018-12-04T05:41:43.019Z,12.20
2018-12-04T05:44:41.183Z,12.20
2018-12-04T05:47:39.953Z,12.20
2018-12-04T05:50:37.715Z,12.20
2018-12-04T05:53:45.285Z,12.20
2018-12-04T05:56:43.050Z,12.20
2018-12-04T05:59:40.983Z,12.20
2018-12-04T06:02:39.720Z,12.20
2018-12-04T06:05:37.427Z,12.10
2018-12-04T06:08:35.496Z,12.00
2018-12-04T06:11:33.346Z,12.10
2018-12-04T06:14:31.313Z,12.00
2018-12-04T06:17:29.163Z,11.90
2018-12-04T06:20:27.012Z,11.80
2018-12-04T06:23:26.099Z,11.60
2018-12-04T06:26:24.057Z,11.50
2018-12-04T06:29:21.920Z,11.10
2018-12-04T06:32:20.881Z,10.70
2018-12-04T06:35:18.636Z,10.30
2018-12-04T06:38:16.389Z,10.10
2018-12-04T06:41:14.141Z,10.00
2018-12-04T06:44:12.008Z,9.90
2018-12-04T06:47:09.823Z,9.90
2018-12-04T06:50:07.608Z,9.80
2018-12-04T06:53:05.463Z,9.80
2018-12-04T06:56:03.268Z,9.90
2018-12-04T06:59:01.176Z,10.00
2018-12-04T07:01:58.942Z,10.00
2018-12-04T07:04:56.682Z,10.00
2018-12-04T07:07:54.684Z,10.00
2018-12-04T07:10:52.525Z,10.10
2018-12-04T07:13:50.396Z,10.10
2018-12-04T07:16:49.144Z,10.10
2018-12-04T07:19:47.088Z,10.10
2018-12-04T07:22:45.154Z,10.20
2018-12-04T07:25:42.909Z,10.20
2018-12-04T07:28:40.885Z,10.20
2018-12-04T07:31:38.623Z,10.20
2018-12-04T07:34:37.284Z,10.20
2018-12-04T07:37:36.069Z,10.20
2018-12-04T07:40:33.700Z,10.20
2018-12-04T07:43:31.419Z,10.30
2018-12-04T07:46:29.150Z,10.30
2018-12-04T07:49:26.791Z,10.30
2018-12-04T07:52:24.565Z,10.30
2018-12-04T07:55:23.305Z,10.40
2018-12-04T07:58:21.071Z,10.40
2018-12-04T08:01:19.071Z,10.40
2018-12-04T08:04:16.910Z,10.40
2018-12-04T08:07:15.616Z,10.40
2018-12-04T08:10:13.668Z,10.40
2018-12-04T08:13:11.471Z,10.50
2018-12-04T08:16:09.210Z,10.50
2018-12-04T08:19:07.092Z,10.50
2018-12-04T08:22:05.049Z,10.50
2018-12-04T08:25:03.852Z,10.60
2018-12-04T08:28:01.761Z,10.60
2018-12-04T08:30:59.553Z,10.60
2018-12-04T08:33:57.264Z,10.70
2018-12-04T08:36:55.137Z,10.70
2018-12-04T08:39:53.198Z,10.70
2018-12-04T08:42:52.053Z,10.70
2018-12-04T08:45:50.025Z,10.80
2018-12-04T08:48:47.994Z,10.90
2018-12-04T08:51:45.708Z,11.00
2018-12-04T08:54:43.412Z,11.10
2018-12-04T08:57:41.278Z,11.20
2018-12-04T09:00:39.312Z,11.20
2018-12-04T09:03:37.148Z,11.20
2018-12-04T09:12:08.960Z,11.30
2018-12-04T09:15:06.788Z,11.10
2018-12-04T09:18:05.470Z,11.20
2018-12-04T09:21:03.228Z,11.20
2018-12-04T09:24:02.130Z,11.20
2018-12-04T09:27:05.314Z,11.20
2018-12-04T09:29:59.583Z,11.30
2018-12-04T09:32:58.336Z,11.30
2018-12-04T09:35:56.903Z,11.40
2018-12-04T09:38:54.802Z,11.40
2018-12-04T09:41:52.706Z,11.40
2018-12-04T09:44:50.470Z,11.50
2018-12-04T09:47:48.177Z,11.50
2018-12-04T09:50:46.890Z,11.50
2018-12-04T09:53:44.781Z,11.50
2018-12-04T09:56:42.702Z,11.50
2018-12-04T09:59:40.514Z,11.50
2018-12-04T10:02:39.232Z,11.60
2018-12-04T10:05:38.045Z,11.60
2018-12-04T10:08:36.933Z,11.60
2018-12-04T10:11:34.737Z,11.60
2018-12-04T10:14:32.731Z,11.60
2018-12-04T10:17:30.677Z,11.50
2018-12-04T10:20:30.366Z,11.60
2018-12-04T10:23:28.206Z,11.70
2018-12-04T10:26:27.809Z,11.70
2018-12-04T10:29:26.616Z,11.60
2018-12-04T10:32:24.223Z,11.60
2018-12-04T10:35:22.073Z,11.60
2018-12-04T10:38:19.954Z,11.60
2018-12-04T10:41:17.666Z,11.60
2018-12-04T10:44:15.352Z,11.60
2018-12-04T10:47:12.972Z,11.60
2018-12-04T10:50:10.849Z,11.60
2018-12-04T10:53:09.540Z,11.70
2018-12-04T10:56:08.350Z,11.70
2018-12-04T10:59:06.064Z,11.80
2018-12-04T11:02:10.056Z,11.90
2018-12-04T11:05:07.818Z,11.90
2018-12-04T11:08:05.668Z,11.90
2018-12-04T11:11:03.498Z,11.90
2018-12-04T11:14:01.333Z,11.90
2018-12-04T11:17:02.100Z,11.90
2018-12-04T11:19:59.857Z,11.90
2018-12-04T11:26:03.541Z,11.80
2018-12-04T11:29:02.241Z,11.70
2018-12-04T11:32:00.107Z,11.70
2018-12-04T11:34:58.930Z,11.70
2018-12-04T11:37:56.664Z,11.70
2018-12-04T11:40:55.399Z,11.70
2018-12-04T11:43:53.248Z,11.70
2018-12-04T11:46:51.002Z,11.70
2018-12-04T11:49:54.585Z,11.80
2018-12-04T11:52:53.250Z,11.90
2018-12-04T11:55:51.621Z,11.90
2018-12-04T11:58:52.993Z,11.90
2018-12-04T12:01:50.635Z,11.90
2018-12-04T12:04:48.533Z,11.90
2018-12-04T12:07:55.068Z,12.00
2018-12-04T12:11:00.041Z,12.10
2018-12-04T12:14:04.365Z,12.20
2018-12-04T12:17:02.021Z,12.30
2018-12-04T12:19:59.952Z,12.40
2018-12-04T12:22:57.797Z,12.50
2018-12-04T12:25:55.774Z,12.50
2018-12-04T12:28:53.628Z,12.50
2018-12-04T12:31:52.503Z,12.40
2018-12-04T12:34:51.317Z,12.30
2018-12-04T12:37:49.230Z,12.30
2018-12-04T12:40:47.092Z,12.30
2018-12-04T12:43:45.975Z,12.50
2018-12-04T12:46:43.918Z,12.60
2018-12-04T12:49:41.673Z,12.80
2018-12-04T12:52:39.849Z,12.90
2018-12-04T12:55:38.279Z,13.00
2018-12-04T12:58:37.012Z,13.00
2018-12-04T13:01:35.000Z,12.90
2018-12-04T13:04:32.972Z,12.90
2018-12-04T13:07:32.794Z,12.80
2018-12-04T13:10:31.471Z,12.70
2018-12-04T13:13:30.206Z,12.60
2018-12-04T13:16:28.377Z,12.50
2018-12-04T13:19:26.071Z,12.40
2018-12-04T13:22:24.051Z,12.30
2018-12-04T13:25:23.930Z,12.20
2018-12-04T13:28:21.876Z,12.10
2018-12-04T13:31:19.879Z,12.10
2018-12-04T13:34:17.860Z,12.10
2018-12-04T13:37:15.799Z,12.00
2018-12-04T13:40:14.558Z,12.00
2018-12-04T13:43:12.503Z,11.90
2018-12-04T13:46:10.606Z,11.90
2018-12-04T13:49:08.653Z,11.80
2018-12-04T13:52:06.487Z,11.80
2018-12-04T13:57:53.499Z,11.80
2018-12-04T14:00:52.212Z,11.90
2018-12-04T14:03:51.144Z,11.90
2018-12-04T14:06:48.896Z,11.90
2018-12-04T14:09:48.030Z,11.90
2018-12-04T14:12:46.449Z,11.90
2018-12-04T14:15:45.372Z,11.80
2018-12-04T14:18:44.122Z,11.90
2018-12-04T14:21:43.081Z,11.80
2018-12-04T14:24:40.920Z,11.70
2018-12-04T14:27:38.997Z,11.70
2018-12-04T14:30:36.785Z,11.70
2018-12-04T14:33:35.558Z,11.70
2018-12-04T14:36:33.651Z,11.70
2018-12-04T14:39:32.573Z,11.70
2018-12-04T14:42:30.494Z,11.60
2018-12-04T14:45:29.459Z,11.70
2018-12-04T14:48:27.469Z,11.50
2018-12-04T14:51:26.429Z,11.40
2018-12-04T14:54:25.312Z,11.40
2018-12-04T14:57:24.126Z,11.30
2018-12-04T15:00:23.116Z,11.20
2018-12-04T15:03:22.629Z,11.20
2018-12-04T15:06:21.042Z,11.20
2018-12-04T15:09:21.150Z,11.10
2018-12-04T15:12:19.981Z,11.10
2018-12-04T15:15:18.003Z,11.10
2018-12-04T15:18:16.161Z,11.10
2018-12-04T15:21:15.072Z,11.10
2018-12-04T15:24:14.073Z,11.00
2018-12-04T15:27:12.033Z,11.00
2018-12-04T15:30:10.766Z,10.90
2018-12-04T15:33:09.457Z,10.80
2018-12-04T15:36:08.360Z,10.70
2018-12-04T15:39:06.372Z,10.60
2018-12-04T15:42:04.102Z,10.50
2018-12-04T15:45:02.856Z,10.30
2018-12-04T15:48:00.842Z,10.20
2018-12-04T15:51:00.081Z,10.20
2018-12-04T15:53:58.355Z,10.10
2018-12-04T15:56:56.264Z,10.00
2018-12-04T15:59:55.258Z,9.90
2018-12-04T16:02:53.603Z,9.70
2018-12-04T16:05:51.457Z,9.50
2018-12-04T16:08:49.226Z,9.40
2018-12-04T16:11:46.977Z,9.30
2018-12-04T16:14:44.929Z,9.30
2018-12-04T16:17:42.682Z,9.20
2018-12-04T16:20:40.711Z,9.10
2018-12-04T16:23:39.628Z,9.00
2018-12-04T16:26:37.573Z,9.00
2018-12-04T16:29:35.442Z,8.90
2018-12-04T16:32:34.328Z,9.00
2018-12-04T16:35:32.265Z,9.00
2018-12-04T16:38:31.007Z,9.00
2018-12-04T16:41:28.894Z,9.10
2018-12-04T16:44:26.583Z,9.00
2018-12-04T16:47:25.331Z,9.00
2018-12-04T16:50:23.188Z,9.00
2018-12-04T16:53:21.149Z,8.90
2018-12-04T16:56:20.006Z,8.80
2018-12-04T16:59:17.953Z,8.80
2018-12-04T17:02:15.943Z,8.70
2018-12-04T17:05:13.912Z,8.80
2018-12-04T17:08:11.725Z,8.80
2018-12-04T17:11:09.607Z,8.80
2018-12-04T17:14:07.471Z,8.90
2018-12-04T17:17:05.356Z,8.90
2018-12-04T17:20:04.089Z,9.00
2018-12-04T17:23:02.123Z,9.00
2018-12-04T17:26:00.725Z,9.10
2018-12-04T17:28:58.731Z,9.10
2018-12-04T17:31:57.571Z,9.20
2018-12-04T17:34:55.662Z,9.20
2018-12-04T17:37:53.575Z,9.20
2018-12-04T17:40:51.658Z,9.20
2018-12-04T17:43:49.508Z,9.20
2018-12-04T17:46:47.290Z,9.20
2018-12-04T17:49:45.180Z,9.20
2018-12-04T17:52:43.078Z,9.20
2018-12-04T17:55:40.932Z,9.20
2018-12-04T17:58:38.997Z,9.20
2018-12-04T18:01:37.263Z,9.30
2018-12-04T18:04:35.235Z,9.30
2018-12-04T18:07:33.053Z,9.30
2018-12-04T18:10:30.917Z,9.30
2018-12-04T18:13:28.700Z,9.30
2018-12-04T18:16:26.411Z,9.30
2018-12-04T18:19:24.222Z,9.30
2018-12-04T18:22:22.218Z,9.40
2018-12-04T18:25:19.961Z,9.40
2018-12-04T18:28:18.849Z,9.40
2018-12-04T18:31:16.835Z,9.30
2018-12-04T18:34:14.645Z,9.30
2018-12-04T18:37:12.527Z,9.20
2018-12-04T18:40:10.320Z,9.20
2018-12-04T18:43:08.302Z,9.20
2018-12-04T18:46:06.216Z,9.20
2018-12-04T18:49:04.090Z,9.20
2018-12-04T18:52:01.931Z,9.20
2018-12-04T18:54:59.769Z,9.20
2018-12-04T18:57:57.525Z,9.20
2018-12-04T19:00:55.355Z,9.20
2018-12-04T19:03:53.159Z,9.20
2018-12-04T19:06:52.037Z,9.20
2018-12-04T19:09:49.912Z,9.30
2018-12-04T19:12:49.635Z,9.30
2018-12-04T19:15:47.950Z,9.40
2018-12-04T19:18:45.785Z,9.40
2018-12-04T19:21:44.485Z,9.40
2018-12-04T19:24:42.413Z,9.50
2018-12-04T19:27:41.045Z,9.50
2018-12-04T19:30:39.879Z,9.50
2018-12-04T19:33:37.641Z,9.50
2018-12-04T19:36:35.389Z,9.50
2018-12-04T19:39:33.492Z,9.50
2018-12-04T19:42:31.572Z,9.40
2018-12-04T19:45:30.165Z,9.40
2018-12-04T19:48:28.072Z,9.40
2018-12-04T19:51:26.771Z,9.30
2018-12-04T19:54:25.653Z,9.30
2018-12-04T19:57:24.358Z,9.30
2018-12-04T20:00:23.174Z,9.30
2018-12-04T20:03:21.363Z,9.30
2018-12-04T20:06:19.141Z,9.30
2018-12-04T20:09:17.123Z,9.20
2018-12-04T20:12:14.991Z,9.20
2018-12-04T20:15:12.989Z,9.20
2018-12-04T20:18:10.767Z,9.20
2018-12-04T20:21:08.744Z,9.20
2018-12-04T20:24:06.708Z,9.20
2018-12-04T20:27:04.669Z,9.20
2018-12-04T20:30:02.504Z,9.10
2018-12-04T20:33:00.582Z,9.10
2018-12-04T20:35:58.670Z,9.00
2018-12-04T20:38:56.796Z,8.90
2018-12-04T20:41:54.824Z,8.90
2018-12-04T20:44:54.002Z,8.80
2018-12-04T20:47:52.363Z,8.70
2018-12-04T20:50:52.463Z,8.50
2018-12-04T20:53:51.140Z,8.40
2018-12-04T20:56:49.933Z,8.30
2018-12-04T20:59:49.125Z,8.20
2018-12-04T21:02:47.801Z,8.10
2018-12-04T21:05:45.487Z,8.00
2018-12-04T21:08:43.906Z,8.00
2018-12-04T21:11:43.415Z,7.90
2018-12-04T21:14:41.851Z,7.90
2018-12-04T21:17:40.954Z,7.90
2018-12-04T21:20:39.941Z,7.90
2018-12-04T21:23:38.958Z,7.90
2018-12-04T21:26:37.291Z,8.00
2018-12-04T21:29:41.222Z,8.10
2018-12-04T21:32:45.198Z,8.10
2018-12-04T21:35:49.216Z,8.10
2018-12-04T21:38:53.102Z,8.20
2018-12-04T21:41:57.088Z,8.20
2018-12-04T21:48:44.978Z,8.30
2018-12-04T21:51:42.905Z,8.30
2018-12-04T21:54:40.933Z,8.40
2018-12-04T21:57:38.960Z,8.40
2018-12-04T22:00:36.883Z,8.40
2018-12-04T22:03:34.799Z,8.50
2018-12-04T22:06:32.594Z,8.50
2018-12-04T22:09:30.696Z,8.50
2018-12-04T22:12:28.660Z,8.40
2018-12-04T22:15:26.350Z,8.40
2018-12-04T22:18:25.081Z,8.40
2018-12-04T22:21:23.496Z,8.30
2018-12-04T22:24:22.364Z,8.30
2018-12-04T22:27:20.306Z,8.20
2018-12-04T22:30:19.681Z,8.20
2018-12-04T22:33:18.251Z,8.20
2018-12-04T22:36:16.247Z,8.10
2018-12-04T22:39:14.222Z,8.10
2018-12-04T22:42:12.047Z,8.10
2018-12-04T22:45:16.170Z,8.10
2018-12-04T22:48:15.137Z,8.00
2018-12-04T22:51:13.702Z,7.90
2018-12-04T22:54:11.480Z,7.90
2018-12-04T22:57:09.512Z,7.90
2018-12-04T23:00:07.336Z,7.90
2018-12-04T23:03:06.166Z,7.90
2018-12-04T23:06:04.238Z,7.90
2018-12-04T23:09:03.112Z,7.80
2018-12-04T23:12:01.090Z,7.80
2018-12-04T23:14:59.116Z,7.70
2018-12-04T23:17:56.880Z,7.60
2018-12-04T23:20:54.735Z,7.50
2018-12-04T23:23:52.699Z,7.50
2018-12-04T23:26:50.636Z,7.50
2018-12-04T23:29:48.734Z,7.50
2018-12-04T23:32:46.572Z,7.60
2018-12-04T23:35:44.519Z,7.60
2018-12-04T23:38:42.483Z,7.70
2018-12-04T23:41:42.686Z,7.70
2018-12-04T23:44:41.095Z,7.70
2018-12-04T23:47:38.927Z,7.80
2018-12-04T23:50:36.872Z,7.80
2018-12-04T23:53:34.805Z,7.80
2018-12-04T23:56:32.605Z,7.80
2018-12-04T23:59:30.430Z,7.90
